Aline, Georgia
Current Conditions -  °F | °C
As of 6:55 PM on Friday 31 Oct 2014 (Local Time) from KVDI Reporting Station
Overcast Overcast  
Wind Chill: 19°   Ceiling: 10000
Heat Index: 19°   Visibility: 10mi
Dew Point:   Wind: 3mph
Humidity: 43%   Direction: 290°WNW
Pressure: 29.82"   Gusts: NA
Location:  32.2572°N, 82.1288°W
Report Text: KVDI 312255Z AUTO 29003KT 10SM OVC100 19/06 A2982 RMK AO2
Loading
Personal Weather Stations






























Interactive Weather Map
Tropical Storm Tracking
New forecast layout! Learn more

10-Day Weather Forecast

Advertisements
Track Severe Weather on mobile